Quick Links (Output Below):   Max & Min Temps   /   Climate Reports   /   Zone Forecasts
River Forecasts   /   Forestry Forecasts   /   Aviation Forecasts   /   Radars   /   Features

Terminal Aerodrome Forecast (Hot Springs)

Pick a Site:
Arkadelphia | El Dorado | Fayetteville | Fort Smith | Harrison | Highfill | Hot Springs | Jonesboro
Little Rock | Monticello | Mountain Home | Pine Bluff | Texarkana
 Forecast 

KHOT 082320Z 0900/0924 31012G22KT P6SM BKN080
     FM090500 30010G16KT P6SM SCT080
     FM091500 31014G24KT P6SM SKC=


 Latest METARs (Observations) 
How to Decode METARs
23Z KHOT 082253Z AUTO 33013G22KT 290V350 10SM CLR 08/M10 A3006 RMK AO2
         PK WND 31026/2230 SLP177 T00831100
         
22Z KHOT 082153Z AUTO 30015G25KT 10SM BKN080 08/M09 A3005 RMK AO2 PK
         WND 33027/2115 SLP176 T00831094
         
21Z KHOT 082053Z AUTO 32014G25KT 10SM SCT070 BKN085 08/M09 A3005 RMK
         AO2 PK WND 30028/1956 SLP176 T00831089 55007
         
20Z KHOT 081953Z AUTO 33016G28KT 10SM BKN070 09/M09 A3005 RMK AO2 PK
         WND 31029/1943 SLP175 T00891089
         
19Z KHOT 081853Z AUTO 31015G30KT 10SM BKN070 07/M08 A3006 RMK AO2 PK
         WND 33030/1848 SLP177 T00721083
         
18Z KHOT 081753Z AUTO 30011G27KT 10SM FEW065 08/M09 A3007 RMK AO2 PK
         WND 29028/1731 SLP183 T00831089 10083 20050 58002
         
17Z KHOT 081653Z AUTO 31009G27KT 270V350 10SM SCT065 07/M09 A3009 RMK
         AO2 PK WND 27035/1616 SLP187 T00721094
         
16Z KHOT 081553Z AUTO 31016G27KT 10SM CLR 07/M09 A3008 RMK AO2 PK WND
         35035/1506 SLP184 T00671089
         
15Z KHOT 081453Z AUTO 32012G29KT 280V360 10SM CLR 06/M09 A3008 RMK AO2
         PK WND 31029/1445 SLP185 T00561089 53013
         
14Z KHOT 081353Z AUTO 30013G27KT 10SM CLR 05/M08 A3007 RMK AO2 PK WND
         31027/1345 SLP180 T00501078
         
***** Today's Observations (Above) *****


Back to Main Page
http://www.srh.noaa.gov/lzk/qfcst.php

USA.gov is the U.S. government's official web portal to all federal, state and local government web resources and services.